• Join FlightAware (Why Join?)
  • Login
  • US Flag 
07:53PM EDT


 

Airport Tracker/Info


-or-


 

Live Flight TrackerFlight Track Log ✈ N137TK ✈ 18-Oct-2013 ✈ KNEW - KAPF

Flight Track Log - Related Links

Times and Time Zones

All times are in EDT time to prevent confusion due to time zone crossing. See the N137TK flight status page for this flight to view local times or setup timezone preferences in your user account.

Time Position Orientation Groundspeed Altitude Reporting Facility
EDT Latitude Longitude Course Direction KTS MPH feet Rate Location/Type
04:58PM 30.0842 -90.0308 357° North 153 176 1,800  Level Houston Center
04:59PM 30.0972 -90.0147 47° Northeast 181 208 2,500 1,860 Climbing Houston Center
04:59PM 30.0931 -89.9825 98° East 179 206 3,700 1,920 Climbing Houston Center
05:00PM 30.0781 -89.9706 145° Southeast 177 204 4,500 1,800 Climbing Houston Center
05:01PM 30.0358 -89.9406 148° Southeast 175 201 6,400 1,860 Climbing Houston Center
05:02PM 29.9939 -89.9081 146° Southeast 181 208 8,400 1,920 Climbing Houston Center
05:03PM 29.9497 -89.8728 145° Southeast 188 216 10,400 2,040 Climbing Houston Center
05:04PM 29.9006 -89.8264 141° Southeast 190 219 12,700 1,800 Climbing Houston Center
05:05PM 29.8653 -89.7806 132° Southeast 190 219 14,200 1,440 Climbing Houston Center
05:06PM 29.8256 -89.7339 134° Southeast 200 230 15,700 1,440 Climbing Houston Center
05:07PM 29.7881 -89.6872 133° Southeast 200 230 17,200 1,500 Climbing Houston Center
05:08PM 29.7519 -89.6436 134° Southeast 190 219 18,900 1,380 Climbing Houston Center
05:09PM 29.7072 -89.5911 134° Southeast 194 223 20,100 1,080 Climbing Houston Center
05:10PM 29.6683 -89.5444 134° Southeast 201 231 21,200 1,020 Climbing Houston Center
05:11PM 29.6286 -89.4972 134° Southeast 205 236 22,300 1,020 Climbing Houston Center
05:12PM 29.5892 -89.4481 133° Southeast 209 241 23,400 840 Climbing Houston Center
05:13PM 29.5469 -89.3978 134° Southeast 217 250 24,100 780 Climbing Houston Center
05:14PM 29.5025 -89.3444 134° Southeast 228 262 25,100 960 Climbing Houston Center
05:15PM 29.4511 -89.2831 134° Southeast 225 259 26,100 780 Climbing Houston Center
05:16PM 29.4075 -89.2333 135° Southeast 223 257 26,800 420 Climbing Houston Center
05:18PM 29.3619 -89.1797 134° Southeast 230 265 27,000 60 Climbing Houston Center
05:19PM 29.3111 -89.1175 133° Southeast 260 299 27,000  Level Houston Center
05:20PM 29.2578 -89.0542 134° Southeast 274 315 27,000  Level Houston Center
05:21PM 29.1925 -88.9769 134° Southeast 281 323 27,000  Level Houston Center
05:22PM 29.1369 -88.9125 135° Southeast 285 328 27,000  Level Houston Center
05:23PM 29.0819 -88.8461 133° Southeast 287 330 27,000  Level Houston Center
05:24PM 29.0256 -88.7800 134° Southeast 289 333 27,000  Level Houston Center
05:25PM 28.9706 -88.7139 134° Southeast 288 331 27,000  Level Houston Center
05:26PM 28.9336 -88.6239 115° Southeast 307 353 27,000  Level Houston Center
05:27PM 28.8844 -88.5225 119° Southeast 304 350 27,000  Level Houston Center
05:28PM 28.8436 -88.4386 119° Southeast 304 350 27,000  Level Houston Center
05:29PM 28.8031 -88.3553 119° Southeast 301 346 27,000  Level Houston Center
05:30PM 28.7625 -88.2731 119° Southeast 299 344 27,000  Level Houston Center
05:31PM 28.7225 -88.1900 119° Southeast 300 345 27,000  Level Houston Center
05:32PM 28.6733 -88.0908 119° Southeast 300 345 27,000  Level Houston Center
05:33PM 28.6358 -88.0133 119° Southeast 300 345 27,000  Level Houston Center
05:34PM 28.5950 -87.9311 119° Southeast 298 343 27,000  Level Houston Center
05:35PM 28.5625 -87.8425 113° Southeast 303 349 27,000  Level Houston Center
05:36PM 28.5239 -87.7367 113° Southeast 303 349 27,000  Level Houston Center
05:37PM 28.4914 -87.6481 113° Southeast 303 349 27,000  Level Houston Center
05:38PM 28.4583 -87.5603 113° Southeast 303 349 27,000  Level Houston Center
05:39PM 28.4264 -87.4717 112° Southeast 303 349 27,000  Level Houston Center
05:40PM 28.3936 -87.3844 113° Southeast 300 345 27,000  Level Houston Center
05:41PM 28.3544 -87.2789 113° Southeast 301 346 27,000  Level Houston Center
05:42PM 28.3225 -87.1928 113° Southeast 299 344 27,000  Level Houston Center
05:44PM 28.2858 -87.0925 113° Southeast 291 335 27,000  Level Jacksonville Center
05:45PM 28.2531 -87.0064 113° Southeast 298 343 27,000  Level Jacksonville Center
05:46PM 28.2186 -86.9156 113° Southeast 298 343 27,000  Level Jacksonville Center
05:47PM 28.1856 -86.8319 114° Southeast 292 336 27,000  Level Jacksonville Center
05:48PM 28.1531 -86.7389 112° Southeast 299 344 27,000  Level Jacksonville Center
05:49PM 28.1219 -86.6575 113° Southeast 292 336 27,000  Level Jacksonville Center
05:50PM 28.0869 -86.5692 114° Southeast 298 343 27,000  Level Jacksonville Center
05:51PM 28.0558 -86.4906 114° Southeast 292 336 27,000  Level Jacksonville Center
05:52PM 28.0231 -86.3953 111° Southeast 297 342 27,000  Level Jacksonville Center
05:53PM 27.9917 -86.3167 114° Southeast 297 342 27,000  Level Jacksonville Center
05:54PM 27.9583 -86.2381 116° Southeast 292 336 27,000  Level Jacksonville Center
05:55PM 27.9253 -86.1453 112° Southeast 293 337 27,000  Level Jacksonville Center
05:56PM 27.8919 -86.0597 114° Southeast 298 343 27,000  Level Jacksonville Center
05:57PM 27.8586 -85.9697 113° Southeast 304 350 27,000  Level Jacksonville Center
05:58PM 27.8253 -85.8819 113° Southeast 296 341 27,000  Level Jacksonville Center
05:59PM 27.7917 -85.8011 115° Southeast 296 341 27,000  Level Jacksonville Center
06:01PM 27.7114 -85.6011 114° Southeast 304 350 27,000  Level Miami Center
06:02PM 27.6772 -85.5097 113° Southeast 309 356 27,000  Level Miami Center
06:03PM 27.6508 -85.4303 111° Southeast 303 349 27,000  Level Miami Center
06:04PM 27.6081 -85.3431 119° Southeast 302 348 27,000  Level Miami Center
06:05PM 27.5817 -85.2592 110° East 302 348 27,000  Level Miami Center
06:06PM 27.5450 -85.1722 115° Southeast 297 342 27,000  Level Miami Center
06:07PM 27.5125 -85.0881 114° Southeast 297 342 27,000  Level Miami Center
06:08PM 27.4733 -85.0058 118° Southeast 297 342 27,000  Level Miami Center
06:09PM 27.4319 -84.9258 120° Southeast 297 342 27,000  Level Miami Center
06:10PM 27.3886 -84.8433 121° Southeast 302 348 27,000  Level Miami Center
06:11PM 27.3511 -84.7661 119° Southeast 302 348 27,000  Level Miami Center
06:12PM 27.3139 -84.6867 118° Southeast 297 342 27,000  Level Miami Center
06:13PM 27.2661 -84.6064 124° Southeast 304 350 27,000  Level Miami Center
06:14PM 27.2306 -84.5269 117° Southeast 304 350 27,000  Level Miami Center
06:15PM 27.1911 -84.4475 119° Southeast 299 344 27,000  Level Miami Center
06:16PM 27.1553 -84.3728 118° Southeast 292 336 27,000  Level Miami Center
06:17PM 27.1133 -84.2956 121° Southeast 292 336 27,000  Level Miami Center
06:18PM 27.0736 -84.2183 120° Southeast 285 328 27,000  Level Miami Center
06:19PM 27.0336 -84.1414 120° Southeast 285 328 27,000  Level Miami Center
06:20PM 26.9958 -84.0644 119° Southeast 285 328 27,000  Level Miami Center
06:21PM 26.9558 -83.9853 120° Southeast 280 322 27,000  Level Miami Center
06:22PM 26.9158 -83.9106 121° Southeast 287 330 27,000  Level Miami Center
06:23PM 26.8736 -83.8336 122° Southeast 287 330 27,000  Level Miami Center
06:24PM 26.8356 -83.7569 119° Southeast 285 328 27,000 -540 Level Miami Center
06:25PM 26.7956 -83.6756 119° Southeast 285 328 26,000 -1,140 Descending Miami Center
06:26PM 26.7517 -83.5894 120° Southeast 295 339 24,800 -1,200 Descending Miami Center
06:27PM 26.7053 -83.5078 122° Southeast 307 353 23,600 -1,260 Descending Miami Center
06:28PM 26.6633 -83.4217 119° Southeast 312 359 22,300 -1,200 Descending Miami Center
06:29PM 26.6211 -83.3406 120° Southeast 312 359 21,200 -1,200 Descending Miami Center
06:30PM 26.5769 -83.2569 121° Southeast 306 352 20,000 -1,200 Descending Miami Center
06:31PM 26.5325 -83.1756 121° Southeast 298 343 18,800 -1,200 Descending Miami Center
06:32PM 26.4939 -83.0994 120° Southeast 303 349 17,700 -1,200 Descending Miami Center
06:33PM 26.4536 -83.0206 120° Southeast 303 349 16,500 -1,200 Descending Miami Center
06:34PM 26.4128 -82.9444 121° Southeast 297 342 15,400 -1,140 Descending Miami Center
06:35PM 26.3744 -82.8683 119° Southeast 292 336 14,300 -1,140 Descending Miami Center
06:36PM 26.3336 -82.7922 121° Southeast 286 329 13,200 -1,140 Descending Miami Center
06:37PM 26.2950 -82.7183 120° Southeast 286 329 12,100 -1,140 Descending Miami Center
06:38PM 26.2542 -82.6400 120° Southeast 286 329 11,000 -1,140 Descending Miami Center
06:39PM 26.2153 -82.5686 121° Southeast 281 323 9,900 -1,080 Descending Miami Center
06:40PM 26.1978 -82.4800 102° East 276 318 8,900 -1,080 Descending Miami Center
06:41PM 26.1928 -82.3942 94° East 276 318 7,800 -960 Descending Miami Center
06:42PM 26.1875 -82.3106 94° East 281 323 7,000 -420 Descending Miami Center
06:43PM 26.1803 -82.2247 95° East 264 304 7,000 -60 Level Miami Center
06:44PM 26.1811 -82.1461 89° East 257 296 6,900 -60 Descending Miami Center
06:45PM 26.2006 -82.0706 74° East 250 288 6,900 -600 Level Miami Center
06:46PM 26.2219 -81.9950 72° East 241 277 5,700 -1,140 Descending Miami Center
06:47PM 26.2389 -81.9311 74° East 224 258 4,700 -1,020 Descending Miami Center
06:49PM 26.1794 -81.8242 79° East  Level Estimated
06:56PM 26.1524 -81.7756 79° East  Level Estimated
06:57PM 26.1524 -81.7756 79° East  Level Estimated
06:58PM 26.1524 -81.7756 79° East  Level Estimated
06:59PM 26.1524 -81.7756 79° East  Level Estimated
07:00PM 26.1524 -81.7756 79° East  Level Estimated